Kerman, Iran
Current Conditions -  °F | °C
As of 9:30 AM on Saturday 29 Nov 2014 (Local Time) from OIKK Reporting Station
Few Clouds Few Clouds  
Wind Chill: 52°   Ceiling: Unl
Heat Index: 52°   Visibility: 6mi
Dew Point: 34°   Wind: 5mph
Humidity: 50%   Direction: 90°E
Pressure: 30.18"   Gusts: NA
Location:  30.3°N, 57.08°E
Report Text: OIKK 290630Z 09004KT 9999 FEW035 11/01 Q1022 A3019
Loading
Personal Weather Stations






























Interactive Weather Map New forecast layout! Learn more

10-Day Weather Forecast

Advertisements
Track Severe Weather on mobile